Cincinnati, Ohio
Traffic Map
Current Weather Conditions
Cincinnati, Ohio
Overcast Moderate Fog
Overcast
40°
Feels Like: 40°
Wind Chill: 40° Ceiling: 200
Heat Index: 40° Visibility: 0.25mi
Dew Point: 40° Wind: 0mph
Humidity: 100% Direction: ° ()
Pressure: 30.25in Gusts: 0mph
Raw Report DataKLUK 201053Z AUTO 00000KT 1/4SM R21L/1000V1200FT FG VV002 04/04 A3025 RMK AO2 SLP243 T00440044
Traffic Incident Summary
Active as of:
Severity:
Category:
InformationThere was an issue retrieving the traffic information for this location. Please try a different location or try again shortly.
Advertisements
Track Severe Weather on mobile